createdAt,value
2023-01-13T00:00:05.424Z,26.89
2023-01-13T00:02:32.212Z,27.01
2023-01-13T00:04:59.033Z,27.20
2023-01-13T00:07:25.816Z,27.22
2023-01-13T00:09:52.573Z,26.95
2023-01-13T00:12:19.394Z,26.97
2023-01-13T00:14:46.188Z,27.13
2023-01-13T00:17:12.938Z,27.10
2023-01-13T00:19:39.730Z,27.32
2023-01-13T00:22:06.676Z,27.03
2023-01-13T00:24:33.452Z,27.28
2023-01-13T00:27:00.216Z,26.96
2023-01-13T00:29:26.962Z,27.29
2023-01-13T00:31:53.755Z,27.20
2023-01-13T00:34:20.672Z,27.19
2023-01-13T00:36:47.499Z,27.07
2023-01-13T00:39:15.076Z,27.18
2023-01-13T00:42:00.748Z,26.94
2023-01-13T00:44:27.504Z,27.28
2023-01-13T00:46:54.368Z,27.36
2023-01-13T00:49:21.308Z,27.13
2023-01-13T00:51:48.068Z,26.90
2023-01-13T00:54:14.815Z,27.20
2023-01-13T00:56:41.600Z,27.41
2023-01-13T00:59:08.446Z,26.90
2023-01-13T01:01:35.296Z,27.32
2023-01-13T01:04:02.102Z,26.82
2023-01-13T01:06:28.940Z,26.96
2023-01-13T01:08:55.754Z,27.36
2023-01-13T01:11:22.552Z,27.06
2023-01-13T01:13:49.390Z,27.40
2023-01-13T01:16:16.468Z,27.35
2023-01-13T01:18:43.317Z,27.13
2023-01-13T01:21:10.069Z,27.05
2023-01-13T01:23:36.832Z,27.03
2023-01-13T01:26:03.637Z,27.35
2023-01-13T01:28:30.400Z,27.26
2023-01-13T01:30:59.615Z,27.29
2023-01-13T01:33:26.404Z,27.39
2023-01-13T01:35:53.155Z,27.09
2023-01-13T01:38:21.174Z,27.28
2023-01-13T01:40:47.966Z,27.21
2023-01-13T01:43:33.646Z,27.23
2023-01-13T01:46:00.464Z,26.94
2023-01-13T01:48:27.191Z,27.00
2023-01-13T01:50:53.994Z,27.10
2023-01-13T01:53:20.751Z,27.04
2023-01-13T01:55:47.541Z,27.48
2023-01-13T01:58:14.395Z,27.29
2023-01-13T02:00:41.204Z,26.96
2023-01-13T02:03:08.041Z,27.16
2023-01-13T02:05:34.847Z,27.11
2023-01-13T02:08:01.684Z,27.22
2023-01-13T02:10:28.575Z,27.42
2023-01-13T02:12:55.446Z,27.39
2023-01-13T02:15:22.262Z,27.02
2023-01-13T02:17:49.052Z,27.11
2023-01-13T02:20:15.905Z,26.97
2023-01-13T02:22:42.724Z,27.08
2023-01-13T02:25:09.497Z,27.39
2023-01-13T02:27:36.452Z,27.33
2023-01-13T02:30:41.936Z,27.21
2023-01-13T02:33:08.738Z,27.42
2023-01-13T02:35:35.532Z,27.42
2023-01-13T02:38:02.581Z,27.33
2023-01-13T02:40:29.358Z,27.08
2023-01-13T02:43:14.613Z,27.02
2023-01-13T02:45:41.459Z,26.98
2023-01-13T02:48:08.369Z,27.09
2023-01-13T02:50:35.150Z,27.04
2023-01-13T02:53:01.932Z,27.27
2023-01-13T02:55:28.764Z,27.24
2023-01-13T02:57:55.600Z,27.37
2023-01-13T03:00:22.446Z,27.04
2023-01-13T03:02:49.312Z,27.11
2023-01-13T03:05:16.176Z,26.94
2023-01-13T03:07:43.001Z,26.96
2023-01-13T03:10:09.791Z,27.29
2023-01-13T03:12:36.573Z,27.23
2023-01-13T03:15:03.371Z,27.09
2023-01-13T03:17:30.137Z,27.15
2023-01-13T03:19:56.933Z,27.04
2023-01-13T03:22:23.733Z,27.31
2023-01-13T03:24:50.570Z,26.87
2023-01-13T03:27:17.375Z,26.89
2023-01-13T03:29:45.447Z,27.48
2023-01-13T03:32:12.246Z,27.00
2023-01-13T03:34:39.039Z,27.26
2023-01-13T03:37:05.809Z,27.15
2023-01-13T03:39:32.638Z,27.01
2023-01-13T03:41:59.916Z,27.12
2023-01-13T03:44:30.799Z,27.26
2023-01-13T03:46:58.835Z,27.02
2023-01-13T03:49:25.657Z,27.04
2023-01-13T03:51:53.631Z,27.41
2023-01-13T03:54:20.425Z,27.37
2023-01-13T03:56:47.295Z,27.32
2023-01-13T03:59:14.367Z,27.12
2023-01-13T04:01:41.260Z,27.21
2023-01-13T04:04:08.248Z,27.31
2023-01-13T04:06:35.079Z,27.47
2023-01-13T04:09:01.868Z,27.07
2023-01-13T04:11:28.632Z,26.94
2023-01-13T04:13:55.407Z,27.29
2023-01-13T04:16:23.726Z,27.10
2023-01-13T04:18:50.528Z,27.28
2023-01-13T04:21:17.270Z,27.26
2023-01-13T04:23:44.063Z,26.92
2023-01-13T04:26:10.845Z,27.40
2023-01-13T04:28:37.640Z,27.19
2023-01-13T04:31:04.483Z,27.27
2023-01-13T04:33:31.316Z,27.18
2023-01-13T04:35:58.093Z,27.29
2023-01-13T04:38:24.907Z,27.04
2023-01-13T04:40:51.701Z,27.13
2023-01-13T04:43:18.506Z,26.78
2023-01-13T04:45:45.308Z,27.04
2023-01-13T04:48:12.302Z,27.00
2023-01-13T04:50:39.067Z,26.90
2023-01-13T04:53:05.951Z,27.15
2023-01-13T04:55:32.805Z,27.25
2023-01-13T04:57:59.717Z,27.21
2023-01-13T05:00:26.834Z,27.37
2023-01-13T05:02:53.597Z,27.33
2023-01-13T05:05:20.355Z,27.05
2023-01-13T05:07:47.215Z,27.15
2023-01-13T05:10:14.033Z,27.21
2023-01-13T05:12:59.510Z,27.17
2023-01-13T05:15:44.844Z,26.87
2023-01-13T05:18:11.654Z,26.88
2023-01-13T05:20:38.518Z,27.31
2023-01-13T05:23:24.232Z,27.25
2023-01-13T05:25:51.025Z,27.36
2023-01-13T05:28:17.811Z,27.28
2023-01-13T05:30:45.850Z,27.15
2023-01-13T05:33:12.618Z,27.15
2023-01-13T05:35:39.409Z,26.81
2023-01-13T05:38:06.253Z,27.34
2023-01-13T05:40:51.700Z,27.36
2023-01-13T05:43:21.583Z,27.30
2023-01-13T05:45:48.341Z,26.78
2023-01-13T05:48:15.114Z,27.34
2023-01-13T05:50:41.956Z,27.28
2023-01-13T05:53:08.703Z,27.39
2023-01-13T05:55:35.568Z,27.22
2023-01-13T05:58:02.506Z,27.19
2023-01-13T06:00:29.531Z,27.44
2023-01-13T06:02:56.382Z,27.28
2023-01-13T06:05:23.152Z,27.34
2023-01-13T06:07:50.699Z,27.04
2023-01-13T06:10:17.449Z,27.16
2023-01-13T06:12:44.251Z,27.43
2023-01-13T06:15:11.021Z,27.28
2023-01-13T06:17:37.795Z,27.26
2023-01-13T06:20:04.613Z,27.28
2023-01-13T06:22:32.837Z,26.96
2023-01-13T06:24:59.774Z,27.23
2023-01-13T06:27:26.582Z,27.37
2023-01-13T06:29:53.397Z,26.87
2023-01-13T06:32:20.199Z,27.23
2023-01-13T06:34:46.973Z,26.90
2023-01-13T06:37:13.746Z,26.96
2023-01-13T06:39:40.619Z,27.17
2023-01-13T06:42:26.376Z,27.30
2023-01-13T06:44:53.171Z,27.27
2023-01-13T06:47:22.293Z,27.24
2023-01-13T06:49:49.157Z,27.25
2023-01-13T06:52:16.125Z,27.39
2023-01-13T06:54:42.973Z,26.91
2023-01-13T06:57:09.768Z,27.06
2023-01-13T06:59:36.594Z,27.28
2023-01-13T07:02:03.510Z,27.29
2023-01-13T07:04:30.376Z,27.26
2023-01-13T07:06:57.297Z,27.27
2023-01-13T07:09:24.055Z,27.34
2023-01-13T07:11:52.687Z,27.12
2023-01-13T07:14:38.290Z,27.13
2023-01-13T07:17:05.136Z,27.17
2023-01-13T07:19:31.951Z,26.88
2023-01-13T07:21:58.746Z,27.11
2023-01-13T07:24:25.764Z,27.22
2023-01-13T07:26:52.828Z,26.90
2023-01-13T07:29:19.607Z,27.47
2023-01-13T07:31:48.290Z,27.39
2023-01-13T07:34:16.625Z,27.17
2023-01-13T07:36:43.429Z,27.29
2023-01-13T07:39:10.220Z,26.72
2023-01-13T07:41:55.871Z,27.23
2023-01-13T07:44:22.816Z,27.15
2023-01-13T07:46:49.623Z,27.26
2023-01-13T07:49:16.433Z,26.89
2023-01-13T07:51:43.289Z,27.07
2023-01-13T07:54:10.108Z,27.18
2023-01-13T07:56:36.900Z,26.92
2023-01-13T07:59:03.799Z,27.02
2023-01-13T08:01:31.841Z,27.15
2023-01-13T08:03:58.994Z,27.31
2023-01-13T08:06:25.855Z,26.89
2023-01-13T08:08:52.749Z,27.19
2023-01-13T08:11:21.046Z,26.97
2023-01-13T08:13:48.927Z,26.91
2023-01-13T08:16:15.838Z,27.19
2023-01-13T08:18:42.679Z,26.84
2023-01-13T08:21:09.714Z,27.05
2023-01-13T08:23:36.563Z,26.89
2023-01-13T08:26:03.389Z,27.24
2023-01-13T08:28:30.253Z,27.16
2023-01-13T08:30:57.031Z,26.97
2023-01-13T08:33:23.839Z,27.71
2023-01-13T08:35:52.552Z,30.37
2023-01-13T08:38:19.298Z,32.10
2023-01-13T08:40:46.076Z,33.37
2023-01-13T08:43:12.829Z,31.49
2023-01-13T08:45:39.604Z,31.78
2023-01-13T08:48:06.355Z,33.40
2023-01-13T08:50:33.179Z,34.08
2023-01-13T08:52:59.962Z,32.64
2023-01-13T08:55:26.722Z,31.21
2023-01-13T08:58:00.494Z,33.35
2023-01-13T09:00:33.342Z,34.40
2023-01-13T09:03:00.150Z,33.81
2023-01-13T09:05:26.951Z,31.58
2023-01-13T09:07:53.716Z,30.77
2023-01-13T09:10:20.500Z,32.65
2023-01-13T09:13:06.040Z,34.07
2023-01-13T09:15:32.864Z,33.78
2023-01-13T09:18:00.328Z,31.67
2023-01-13T09:20:27.076Z,30.80
2023-01-13T09:22:53.842Z,30.06
2023-01-13T09:25:20.623Z,32.61
2023-01-13T09:27:47.436Z,34.61
2023-01-13T09:30:14.235Z,35.64
2023-01-13T09:32:41.017Z,32.21
2023-01-13T09:35:07.794Z,31.39
2023-01-13T09:37:34.605Z,30.95
2023-01-13T09:40:01.356Z,30.56
2023-01-13T09:42:46.905Z,30.30
2023-01-13T09:45:13.697Z,32.75
2023-01-13T09:47:41.069Z,35.52
2023-01-13T09:50:07.829Z,33.12
2023-01-13T09:52:35.801Z,31.48
2023-01-13T09:55:02.611Z,30.96
2023-01-13T09:57:29.458Z,30.50
2023-01-13T09:59:57.443Z,30.27
2023-01-13T10:02:24.277Z,30.17
2023-01-13T10:04:51.088Z,33.37
2023-01-13T10:07:17.863Z,34.50
2023-01-13T10:09:44.663Z,34.09
2023-01-13T10:12:30.099Z,31.96
2023-01-13T10:14:56.879Z,31.07
2023-01-13T10:17:23.689Z,30.91
2023-01-13T10:19:50.472Z,30.65
2023-01-13T10:22:17.209Z,30.31
2023-01-13T10:24:43.988Z,30.35
2023-01-13T10:27:10.773Z,31.08
2023-01-13T10:29:37.571Z,34.41
2023-01-13T10:32:04.374Z,34.67
2023-01-13T10:34:31.243Z,32.55
2023-01-13T10:37:00.001Z,31.48
2023-01-13T10:39:26.734Z,31.01
2023-01-13T10:41:53.478Z,30.51
2023-01-13T10:44:20.249Z,30.26
2023-01-13T10:46:47.024Z,30.40
2023-01-13T10:49:13.785Z,30.22
2023-01-13T10:51:40.712Z,31.12
2023-01-13T10:54:07.522Z,33.58
2023-01-13T10:56:34.285Z,35.36
2023-01-13T10:59:01.030Z,32.50
2023-01-13T11:01:28.237Z,31.62
2023-01-13T11:03:55.173Z,31.28
2023-01-13T11:06:21.970Z,30.97
2023-01-13T11:08:49.136Z,30.58
2023-01-13T11:11:15.934Z,30.67
2023-01-13T11:14:02.728Z,30.34
2023-01-13T11:16:29.545Z,32.50
2023-01-13T11:19:02.537Z,34.55
2023-01-13T11:21:29.406Z,35.54
2023-01-13T11:23:56.178Z,32.75
2023-01-13T11:26:22.951Z,31.79
2023-01-13T11:28:49.703Z,31.65
2023-01-13T11:31:16.739Z,31.28
2023-01-13T11:33:43.498Z,30.91
2023-01-13T11:36:10.233Z,30.56
2023-01-13T11:38:37.139Z,30.40
2023-01-13T11:41:04.263Z,30.59
2023-01-13T11:43:33.328Z,33.74
2023-01-13T11:46:00.168Z,35.17
2023-01-13T11:48:27.058Z,34.75
2023-01-13T11:50:54.932Z,32.52
2023-01-13T11:53:21.735Z,31.95
2023-01-13T11:55:48.487Z,31.71
2023-01-13T11:58:15.277Z,31.41
2023-01-13T12:00:42.621Z,31.21
2023-01-13T12:03:09.506Z,31.13
2023-01-13T12:05:36.291Z,30.99
2023-01-13T12:08:03.044Z,30.74
2023-01-13T12:10:29.924Z,31.48
2023-01-13T12:12:58.870Z,34.79
2023-01-13T12:15:26.832Z,36.83
2023-01-13T12:17:53.607Z,33.85
2023-01-13T12:20:20.369Z,32.45
2023-01-13T12:22:47.389Z,31.99
2023-01-13T12:25:14.238Z,31.48
2023-01-13T12:27:40.989Z,31.55
2023-01-13T12:30:09.457Z,31.50
2023-01-13T12:32:36.333Z,31.13
2023-01-13T12:35:03.704Z,31.31
2023-01-13T12:37:30.780Z,31.51
2023-01-13T12:39:57.694Z,34.72
2023-01-13T12:42:42.962Z,36.96
2023-01-13T12:45:09.742Z,34.09
2023-01-13T12:47:36.588Z,32.59
2023-01-13T12:50:03.344Z,32.20
2023-01-13T12:52:34.263Z,31.75
2023-01-13T12:55:01.009Z,31.49
2023-01-13T12:57:27.785Z,31.48
2023-01-13T12:59:54.552Z,31.41
2023-01-13T13:02:21.441Z,31.27
2023-01-13T13:04:49.599Z,32.23
2023-01-13T13:07:16.384Z,34.68
2023-01-13T13:09:43.299Z,35.27
2023-01-13T13:12:10.053Z,35.00
2023-01-13T13:14:36.826Z,33.41
2023-01-13T13:17:03.616Z,32.85
2023-01-13T13:19:30.368Z,32.46
2023-01-13T13:21:57.117Z,32.11
2023-01-13T13:24:24.012Z,31.81
2023-01-13T13:26:50.820Z,31.71
2023-01-13T13:29:17.687Z,31.43
2023-01-13T13:31:44.414Z,31.47
2023-01-13T13:34:11.202Z,31.40
2023-01-13T13:36:37.997Z,32.04
2023-01-13T13:39:24.600Z,34.51
2023-01-13T13:42:10.081Z,35.22
2023-01-13T13:44:55.474Z,35.63
2023-01-13T13:47:22.221Z,33.54
2023-01-13T13:49:52.378Z,32.52
2023-01-13T13:52:19.436Z,32.63
2023-01-13T13:54:48.036Z,32.19
2023-01-13T13:57:14.840Z,32.12
2023-01-13T13:59:41.663Z,32.04
2023-01-13T14:02:08.555Z,31.84
2023-01-13T14:04:36.005Z,31.72
2023-01-13T14:07:04.815Z,31.81
2023-01-13T14:09:31.519Z,33.20
2023-01-13T14:11:58.327Z,36.07
2023-01-13T14:14:25.187Z,37.56
2023-01-13T14:16:52.131Z,34.46
2023-01-13T14:19:18.894Z,33.53
2023-01-13T14:21:45.633Z,33.07
2023-01-13T14:24:12.836Z,32.42
2023-01-13T14:26:39.581Z,32.43
2023-01-13T14:29:06.329Z,32.09
2023-01-13T14:31:33.102Z,31.99
2023-01-13T14:33:59.851Z,32.20
2023-01-13T14:36:26.743Z,31.87
2023-01-13T14:38:53.517Z,31.95
2023-01-13T14:41:20.295Z,35.26
2023-01-13T14:43:47.078Z,35.94
2023-01-13T14:46:13.979Z,34.22
2023-01-13T14:48:43.088Z,33.33
2023-01-13T14:51:10.749Z,32.74
2023-01-13T14:53:37.571Z,32.56
2023-01-13T14:56:04.370Z,32.07
2023-01-13T14:58:31.129Z,31.94
2023-01-13T15:00:57.890Z,32.10
2023-01-13T15:03:24.674Z,31.74
2023-01-13T15:05:51.509Z,34.28
2023-01-13T15:08:18.383Z,36.88
2023-01-13T15:10:45.129Z,35.45
2023-01-13T15:13:11.884Z,33.66
2023-01-13T15:15:38.761Z,33.13
2023-01-13T15:18:05.628Z,32.72
2023-01-13T15:20:32.451Z,32.51
2023-01-13T15:23:00.787Z,32.37
2023-01-13T15:25:27.521Z,32.09
2023-01-13T15:27:54.331Z,32.28
2023-01-13T15:30:21.130Z,33.39
2023-01-13T15:32:47.861Z,36.04
2023-01-13T15:35:14.657Z,37.33
2023-01-13T15:37:41.406Z,35.53
2023-01-13T15:40:08.180Z,34.23
2023-01-13T15:42:53.590Z,33.59
2023-01-13T15:45:39.018Z,33.29
2023-01-13T15:48:05.761Z,32.82
2023-01-13T15:50:32.509Z,32.57
2023-01-13T15:53:00.181Z,32.56
2023-01-13T15:55:27.053Z,32.32
2023-01-13T15:57:53.803Z,32.38
2023-01-13T16:00:21.430Z,32.19
2023-01-13T16:02:48.276Z,35.26
2023-01-13T16:05:15.017Z,37.07
2023-01-13T16:07:41.789Z,36.69
2023-01-13T16:10:09.225Z,34.31
2023-01-13T16:12:37.397Z,33.60
2023-01-13T16:15:04.162Z,33.31
2023-01-13T16:17:30.926Z,33.13
2023-01-13T16:19:57.679Z,32.92
2023-01-13T16:22:24.415Z,32.59
2023-01-13T16:24:51.328Z,32.56
2023-01-13T16:27:18.104Z,32.47
2023-01-13T16:29:44.933Z,32.53
2023-01-13T16:32:11.702Z,32.68
2023-01-13T16:34:38.454Z,36.08
2023-01-13T16:37:05.195Z,36.42
2023-01-13T16:39:31.985Z,37.15
2023-01-13T16:41:58.787Z,34.87
2023-01-13T16:44:25.540Z,34.23
2023-01-13T16:46:52.297Z,33.91
2023-01-13T16:49:19.284Z,33.56
2023-01-13T16:51:46.060Z,33.07
2023-01-13T16:54:12.922Z,32.93
2023-01-13T16:56:39.710Z,32.74
2023-01-13T16:59:07.401Z,32.63
2023-01-13T17:01:34.267Z,32.50
2023-01-13T17:04:01.140Z,32.29
2023-01-13T17:06:27.885Z,32.58
2023-01-13T17:08:55.301Z,35.03
2023-01-13T17:11:22.092Z,36.54
2023-01-13T17:13:48.910Z,38.53
2023-01-13T17:16:15.733Z,35.24
2023-01-13T17:18:42.552Z,34.44
2023-01-13T17:21:09.301Z,33.96
2023-01-13T17:23:36.188Z,33.52
2023-01-13T17:26:02.922Z,33.29
2023-01-13T17:28:29.744Z,33.18
2023-01-13T17:30:56.510Z,32.83
2023-01-13T17:33:23.274Z,32.72
2023-01-13T17:35:50.014Z,32.53
2023-01-13T17:38:16.828Z,32.70
2023-01-13T17:40:43.556Z,32.55
2023-01-13T17:43:10.284Z,35.28
2023-01-13T17:45:37.060Z,38.06
2023-01-13T17:48:04.069Z,36.68
2023-01-13T17:50:32.414Z,34.79
2023-01-13T17:52:59.168Z,33.72
2023-01-13T17:55:25.917Z,33.46
2023-01-13T17:57:52.656Z,33.15
2023-01-13T18:00:19.455Z,32.99
2023-01-13T18:02:46.181Z,32.83
2023-01-13T18:05:12.959Z,32.75
2023-01-13T18:07:39.742Z,32.70
2023-01-13T18:10:06.484Z,32.54
2023-01-13T18:12:34.681Z,33.31
2023-01-13T18:15:01.491Z,35.86
2023-01-13T18:17:28.279Z,36.55
2023-01-13T18:20:13.580Z,37.18
2023-01-13T18:22:58.784Z,34.95
2023-01-13T18:25:44.329Z,34.15
2023-01-13T18:28:11.073Z,33.78
2023-01-13T18:30:37.867Z,33.42
2023-01-13T18:33:04.662Z,33.25
2023-01-13T18:35:31.381Z,33.14
2023-01-13T18:37:58.160Z,32.87
2023-01-13T18:40:25.037Z,32.73
2023-01-13T18:42:51.984Z,32.86
2023-01-13T18:45:18.763Z,32.56
2023-01-13T18:47:45.592Z,33.33
2023-01-13T18:50:13.597Z,35.81
2023-01-13T18:52:40.836Z,36.82
2023-01-13T18:55:07.592Z,37.16
2023-01-13T18:57:38.441Z,35.26
2023-01-13T19:00:05.167Z,34.43
2023-01-13T19:02:31.947Z,33.84
2023-01-13T19:04:58.685Z,33.72
2023-01-13T19:07:28.557Z,33.49
2023-01-13T19:09:55.761Z,33.08
2023-01-13T19:12:30.760Z,33.15
2023-01-13T19:14:57.579Z,32.99
2023-01-13T19:17:24.425Z,32.88
2023-01-13T19:19:51.456Z,32.79
2023-01-13T19:22:19.409Z,32.73
2023-01-13T19:24:46.214Z,36.13
2023-01-13T19:27:14.294Z,38.71
2023-01-13T19:29:44.539Z,37.05
2023-01-13T19:32:19.004Z,34.79
2023-01-13T19:34:47.615Z,34.04
2023-01-13T19:37:14.345Z,33.68
2023-01-13T19:39:41.082Z,33.38
2023-01-13T19:42:26.271Z,33.19
2023-01-13T19:45:11.561Z,33.15
2023-01-13T19:47:38.715Z,33.17
2023-01-13T19:50:06.476Z,33.10
2023-01-13T19:52:33.209Z,32.79
2023-01-13T19:54:59.958Z,34.36
2023-01-13T19:57:26.951Z,36.23
2023-01-13T19:59:53.733Z,38.33
2023-01-13T20:02:27.771Z,36.63
2023-01-13T20:04:55.753Z,35.11
2023-01-13T20:07:23.534Z,34.55
2023-01-13T20:09:50.613Z,34.23
2023-01-13T20:12:17.437Z,33.78
2023-01-13T20:14:45.244Z,33.41
2023-01-13T20:17:12.046Z,33.23
2023-01-13T20:19:38.826Z,33.40
2023-01-13T20:22:06.807Z,33.03
2023-01-13T20:24:33.586Z,32.90
2023-01-13T20:27:01.240Z,32.90
2023-01-13T20:29:28.085Z,33.89
2023-01-13T20:31:54.867Z,36.15
2023-01-13T20:34:21.593Z,38.27
2023-01-13T20:36:48.365Z,37.08
2023-01-13T20:39:15.156Z,35.38
2023-01-13T20:42:00.876Z,34.71
2023-01-13T20:44:27.718Z,34.15
2023-01-13T20:46:55.712Z,33.94
2023-01-13T20:49:22.479Z,33.81
2023-01-13T20:51:49.270Z,33.61
2023-01-13T20:54:16.011Z,33.29
2023-01-13T20:56:42.758Z,33.13
2023-01-13T20:59:09.516Z,33.04
2023-01-13T21:01:36.304Z,33.05
2023-01-13T21:04:03.323Z,33.49
2023-01-13T21:06:30.111Z,36.05
2023-01-13T21:08:56.879Z,38.75
2023-01-13T21:11:42.108Z,36.78
2023-01-13T21:14:27.427Z,34.88
2023-01-13T21:16:54.202Z,34.39
2023-01-13T21:19:20.920Z,34.14
2023-01-13T21:21:47.649Z,33.83
2023-01-13T21:24:14.414Z,33.77
2023-01-13T21:26:42.259Z,33.48
2023-01-13T21:29:09.082Z,33.25
2023-01-13T21:31:35.930Z,33.41
2023-01-13T21:34:02.764Z,33.17
2023-01-13T21:36:29.645Z,33.18
2023-01-13T21:38:56.527Z,32.91
2023-01-13T21:41:41.926Z,34.58
2023-01-13T21:44:27.417Z,37.21
2023-01-13T21:47:12.570Z,39.93
2023-01-13T21:49:44.150Z,36.36
2023-01-13T21:52:11.138Z,35.18
2023-01-13T21:54:57.869Z,34.69
2023-01-13T21:57:26.196Z,34.15
2023-01-13T21:59:53.932Z,33.92
2023-01-13T22:02:31.937Z,33.74
2023-01-13T22:04:58.776Z,33.54
2023-01-13T22:07:26.495Z,33.42
2023-01-13T22:09:53.380Z,33.20
2023-01-13T22:12:23.708Z,33.13
2023-01-13T22:14:50.431Z,33.00
2023-01-13T22:17:17.773Z,33.11
2023-01-13T22:19:44.564Z,33.42
2023-01-13T22:22:14.320Z,36.47
2023-01-13T22:24:43.244Z,37.02
2023-01-13T22:27:09.984Z,37.64
2023-01-13T22:29:37.766Z,35.73
2023-01-13T22:32:04.657Z,34.83
2023-01-13T22:34:31.498Z,34.61
2023-01-13T22:36:58.249Z,33.96
2023-01-13T22:39:25.068Z,33.86
2023-01-13T22:41:51.821Z,33.66
2023-01-13T22:44:18.571Z,33.36
2023-01-13T22:46:45.317Z,33.27
2023-01-13T22:49:12.032Z,33.38
2023-01-13T22:51:39.025Z,33.36
2023-01-13T22:54:05.809Z,32.86
2023-01-13T22:56:32.542Z,33.02
2023-01-13T22:58:59.270Z,35.56
2023-01-13T23:01:26.185Z,37.54
2023-01-13T23:03:53.025Z,39.60
2023-01-13T23:06:19.803Z,36.33
2023-01-13T23:08:46.541Z,35.29
2023-01-13T23:11:13.267Z,34.69
2023-01-13T23:13:40.084Z,34.23
2023-01-13T23:16:06.839Z,33.69
2023-01-13T23:18:33.573Z,33.81
2023-01-13T23:21:00.295Z,33.74
2023-01-13T23:23:27.042Z,33.31
2023-01-13T23:25:56.215Z,33.29
2023-01-13T23:28:22.947Z,33.15
2023-01-13T23:30:49.865Z,32.95
2023-01-13T23:33:16.606Z,33.00
2023-01-13T23:35:43.329Z,33.58
2023-01-13T23:38:10.076Z,36.40
2023-01-13T23:40:38.231Z,39.01
2023-01-13T23:43:05.014Z,36.95
2023-01-13T23:45:31.749Z,34.98
2023-01-13T23:47:58.539Z,34.35
2023-01-13T23:50:25.276Z,34.04
2023-01-13T23:52:52.102Z,33.84
2023-01-13T23:55:18.825Z,33.85
2023-01-13T23:57:45.569Z,33.62
